Time;durP1;ratioP1;P1;durP2;ratioP2;P2;SDS_P1;SDS_P2;PMS_P1;PMS_P2;Temp;Humidity;BMP_temperature;BMP_pressure;BME280_temperature;BME280_humidity;BME280_pressure;Samples;Min_cycle;Max_cycle;Signal;HPM_P1;HPM_P2
2023/12/12 00:00:19;;;;;;;;;5.00;2.00;;;;;21.76;50.54;99286.09;112181;1247;20669;-30
2023/12/12 00:03:06;;;;;;;;;2.00;2.00;;;;;21.74;50.72;99290.44;112183;1262;22105;-30
2023/12/12 00:05:34;;;;;;;;;2.00;2.00;;;;;21.74;50.52;99290.63;112154;1262;19967;-31
2023/12/12 00:08:01;;;;;;;;;4.00;4.00;;;;;21.73;50.15;99284.65;112217;1247;20766;-30
2023/12/12 00:10:29;;;;;;;;;4.00;4.00;;;;;21.73;50.12;99288.46;112127;1247;19979;-31
2023/12/12 00:12:56;;;;;;;;;4.00;4.00;;;;;21.73;50.01;99294.08;112224;1248;19990;-31
2023/12/12 00:15:24;;;;;;;;;5.00;4.00;;;;;21.72;50.23;99296.45;112177;1262;20712;-30
2023/12/12 00:17:51;;;;;;;;;4.00;4.00;;;;;21.73;50.29;99299.59;112209;1247;19575;-31
2023/12/12 00:20:19;;;;;;;;;4.00;4.00;;;;;21.72;50.06;99302.50;112151;1262;20205;-30
2023/12/12 00:22:46;;;;;;;;;2.00;2.00;;;;;21.72;50.04;99308.66;112252;1247;20788;-31
2023/12/12 00:25:13;;;;;;;;;4.00;4.00;;;;;21.72;49.96;99310.08;112165;1262;18420;-31
2023/12/12 00:27:41;;;;;;;;;4.00;4.00;;;;;21.72;49.84;99313.34;112235;1262;21203;-30
2023/12/12 00:30:08;;;;;;;;;5.00;5.00;;;;;21.72;49.60;99316.00;112184;1247;20757;-30
2023/12/12 00:32:36;;;;;;;;;4.00;2.00;;;;;21.72;49.68;99317.70;112253;1262;18141;-30
2023/12/12 00:35:03;;;;;;;;;4.00;2.00;;;;;21.71;49.50;99318.43;112172;1247;20382;-30
2023/12/12 00:37:30;;;;;;;;;2.67;2.67;;;;;21.72;49.69;99322.45;112259;1247;19325;-30
2023/12/12 00:39:58;;;;;;;;;4.00;4.00;;;;;21.71;49.33;99325.62;112139;1262;18619;-31
2023/12/12 00:42:25;;;;;;;;;4.50;4.00;;;;;21.71;49.63;99324.49;112283;1262;20001;-31
2023/12/12 00:44:53;;;;;;;;;4.33;4.33;;;;;21.71;49.43;99322.58;112167;1247;20779;-31
2023/12/12 00:47:20;;;;;;;;;4.00;4.00;;;;;21.70;49.54;99322.27;112283;1247;19620;-31
2023/12/12 00:49:47;;;;;;;;;4.00;2.00;;;;;21.70;49.50;99325.55;112179;1262;18617;-31
2023/12/12 00:52:15;;;;;;;;;2.00;2.00;;;;;21.71;49.33;99326.45;112208;1262;19384;-31
2023/12/12 00:54:42;;;;;;;;;4.00;4.00;;;;;21.71;49.44;99330.42;112201;1247;18137;-31
2023/12/12 00:57:10;;;;;;;;;4.00;4.00;;;;;21.71;49.17;99328.70;112236;1247;21256;-31
2023/12/12 00:59:37;;;;;;;;;4.00;4.00;;;;;21.71;49.31;99330.59;112242;1247;20617;-31
2023/12/12 01:02:04;;;;;;;;;2.00;2.00;;;;;21.70;49.26;99328.59;112288;1262;18422;-31
2023/12/12 01:04:32;;;;;;;;;4.00;4.00;;;;;21.70;49.40;99329.11;112256;1247;19987;-31
2023/12/12 01:06:59;;;;;;;;;4.00;2.00;;;;;21.70;49.23;99339.72;112273;1247;19498;-31
2023/12/12 01:09:28;;;;;;;;;4.00;4.00;;;;;21.69;49.24;99347.38;112255;1247;19689;-31
2023/12/12 01:11:55;;;;;;;;;5.00;5.00;;;;;21.70;49.08;99349.47;112250;1262;18784;-31
2023/12/12 01:14:22;;;;;;;;;4.00;4.00;;;;;21.70;49.16;99354.21;112217;1247;19353;-31
2023/12/12 01:16:50;;;;;;;;;4.00;4.00;;;;;21.69;48.87;99353.37;112239;1262;18301;-31
2023/12/12 01:19:17;;;;;;;;;4.00;4.00;;;;;21.69;49.00;99359.69;112237;1262;19972;-31
2023/12/12 01:21:45;;;;;;;;;2.00;2.00;;;;;21.68;48.87;99358.94;112243;1262;20700;-31
2023/12/12 01:24:12;;;;;;;;;2.00;2.00;;;;;21.68;49.25;99360.33;112203;1262;19524;-30
2023/12/12 01:26:39;;;;;;;;;2.00;2.00;;;;;21.68;48.74;99364.84;112263;1248;19954;-31
2023/12/12 01:29:07;;;;;;;;;7.00;4.00;;;;;21.68;48.70;99369.20;112259;1247;20714;-31
2023/12/12 01:31:34;;;;;;;;;4.00;2.00;;;;;21.69;48.63;99370.88;112038;1256;18184;-31
2023/12/12 01:34:02;;;;;;;;;2.00;2.00;;;;;21.69;48.56;99377.48;112070;1249;20522;-31
2023/12/12 01:36:29;;;;;;;;;2.00;2.00;;;;;21.68;48.68;99381.99;111933;1250;20748;-31
2023/12/12 01:38:57;;;;;;;;;4.00;2.00;;;;;21.68;48.63;99386.42;111779;1264;355634;-31
2023/12/12 01:41:25;;;;;;;;;2.00;2.00;;;;;21.69;48.80;99384.02;111965;1251;21232;-31
2023/12/12 01:43:52;;;;;;;;;2.00;2.00;;;;;21.67;48.81;99381.55;112030;1250;20745;-30
2023/12/12 01:46:20;;;;;;;;;2.00;2.00;;;;;21.68;48.64;99385.23;112059;1264;18183;-30
2023/12/12 01:48:47;;;;;;;;;4.00;2.00;;;;;21.67;48.55;99387.31;112078;1264;20038;-31
2023/12/12 01:51:14;;;;;;;;;4.00;4.00;;;;;21.67;48.67;99387.59;111961;1260;20732;-31
2023/12/12 01:53:43;;;;;;;;;2.00;2.00;;;;;21.65;48.38;99386.98;112065;1250;19596;-31
2023/12/12 01:56:10;;;;;;;;;2.67;2.67;;;;;21.65;48.68;99392.48;112122;1250;20070;-31
2023/12/12 01:58:37;;;;;;;;;2.00;2.00;;;;;21.65;48.64;99397.88;112007;1249;20924;-31
2023/12/12 02:01:05;;;;;;;;;4.00;4.00;;;;;21.64;48.38;99402.73;112030;1251;19622;-31
2023/12/12 02:03:32;;;;;;;;;2.00;2.00;;;;;21.65;48.32;99404.52;112002;1264;21324;-31
2023/12/12 02:06:00;;;;;;;;;4.50;4.00;;;;;21.64;48.27;99408.13;111951;1264;19415;-31
2023/12/12 02:08:27;;;;;;;;;2.00;2.00;;;;;21.65;48.48;99411.83;112021;1250;18189;-31
2023/12/12 02:10:54;;;;;;;;;3.00;3.00;;;;;21.66;48.28;99414.81;111960;1264;20207;-31
2023/12/12 02:13:22;;;;;;;;;4.00;4.00;;;;;21.64;48.34;99413.27;112053;1250;20675;-31
2023/12/12 02:15:49;;;;;;;;;4.33;4.33;;;;;21.64;48.25;99416.05;111980;1249;19572;-31
2023/12/12 02:18:17;;;;;;;;;2.00;2.00;;;;;21.64;48.52;99421.11;112039;1249;21385;-31
2023/12/12 02:20:44;;;;;;;;;3.50;3.00;;;;;21.65;48.12;99420.73;111971;1264;19469;-31
2023/12/12 02:23:11;;;;;;;;;4.00;4.00;;;;;21.65;48.05;99430.13;112046;1257;19569;-31
2023/12/12 02:25:39;;;;;;;;;2.00;2.00;;;;;21.65;48.39;99437.66;111969;1249;20018;-31
2023/12/12 02:28:06;;;;;;;;;2.00;2.00;;;;;21.64;48.26;99441.05;112067;1249;19571;-31
2023/12/12 02:30:34;;;;;;;;;2.00;2.00;;;;;21.65;48.09;99444.81;111941;1263;19575;-31
2023/12/12 02:33:01;;;;;;;;;7.00;4.00;;;;;21.64;48.13;99445.96;112108;1248;20056;-30
2023/12/12 02:35:29;;;;;;;;;2.00;2.00;;;;;21.65;48.08;99446.61;111950;1249;20787;-31
2023/12/12 02:37:57;;;;;;;;;4.00;4.00;;;;;21.64;48.03;99452.12;112061;1249;19587;-31
2023/12/12 02:40:24;;;;;;;;;2.00;2.00;;;;;21.64;48.07;99452.17;111990;1264;18525;-30
2023/12/12 02:42:52;;;;;;;;;4.00;2.00;;;;;21.64;48.09;99451.21;112071;1264;20796;-30
2023/12/12 02:45:20;;;;;;;;;3.00;3.00;;;;;21.64;47.91;99453.23;111950;1264;18158;-30
2023/12/12 02:47:47;;;;;;;;;3.00;2.00;;;;;21.63;48.09;99455.92;112036;1251;21472;-30
2023/12/12 02:50:14;;;;;;;;;4.00;2.00;;;;;21.64;48.02;99456.05;112005;1257;20750;-30
2023/12/12 02:52:42;;;;;;;;;2.00;2.00;;;;;21.63;48.04;99455.15;112016;1249;19568;-30
2023/12/12 02:55:09;;;;;;;;;4.00;2.00;;;;;21.63;48.04;99454.51;111979;1264;20031;-30
2023/12/12 02:57:37;;;;;;;;;4.00;2.00;;;;;21.64;48.19;99456.21;112048;1264;19353;-30
2023/12/12 03:00:05;;;;;;;;;2.00;2.00;;;;;21.63;47.91;99457.81;112002;1249;19628;-30
2023/12/12 03:02:33;;;;;;;;;2.00;2.00;;;;;21.64;48.22;99457.91;112001;1264;20297;-30
2023/12/12 03:05:00;;;;;;;;;2.67;2.67;;;;;21.63;47.91;99461.30;111943;1264;20996;-30
2023/12/12 03:07:28;;;;;;;;;4.00;4.00;;;;;21.63;47.78;99463.93;111994;1264;19774;-30
2023/12/12 03:09:55;;;;;;;;;4.00;4.00;;;;;21.63;47.99;99468.39;111966;1264;20013;-30
2023/12/12 03:12:22;;;;;;;;;4.00;4.00;;;;;21.63;47.90;99470.31;112012;1264;19403;-31
2023/12/12 03:14:50;;;;;;;;;2.00;2.00;;;;;21.62;47.90;99472.71;111979;1257;18179;-30
2023/12/12 03:17:17;;;;;;;;;3.00;2.00;;;;;21.62;47.85;99473.80;112017;1264;18663;-30
2023/12/12 03:19:45;;;;;;;;;2.00;2.00;;;;;21.62;48.02;99477.36;111973;1264;19376;-31
2023/12/12 03:22:12;;;;;;;;;2.00;2.00;;;;;21.61;47.59;99482.16;112036;1250;18727;-30
2023/12/12 03:24:39;;;;;;;;;2.00;2.00;;;;;21.60;47.94;99485.04;111999;1264;19987;-30
2023/12/12 03:27:08;;;;;;;;;5.00;2.00;;;;;21.61;48.01;99485.88;112027;1264;20557;-30
2023/12/12 03:29:36;;;;;;;;;2.00;2.00;;;;;21.61;48.00;99492.15;111989;1257;19480;-31
2023/12/12 03:32:03;;;;;;;;;3.33;3.33;;;;;21.61;47.72;99492.96;111988;1256;19960;-31
2023/12/12 03:34:30;;;;;;;;;2.00;2.00;;;;;21.62;47.72;99497.52;112002;1251;22059;-30
2023/12/12 03:36:58;;;;;;;;;2.00;2.00;;;;;21.62;47.81;99500.19;111993;1250;19561;-35
2023/12/12 03:39:25;;;;;;;;;2.00;2.00;;;;;21.62;47.87;99507.23;112014;1249;20291;-30
2023/12/12 03:41:53;;;;;;;;;2.00;2.00;;;;;21.61;47.88;99511.98;111968;1249;21017;-30
2023/12/12 03:44:20;;;;;;;;;2.00;2.00;;;;;21.62;47.97;99519.32;111993;1264;18146;-30
2023/12/12 03:46:47;;;;;;;;;4.00;4.00;;;;;21.61;47.78;99520.98;112004;1249;18597;-31
2023/12/12 03:49:15;;;;;;;;;1.00;1.00;;;;;21.61;47.99;99529.58;111997;1249;20764;-31
2023/12/12 03:51:42;;;;;;;;;4.00;3.00;;;;;21.60;47.97;99529.56;112018;1250;19592;-31
2023/12/12 03:54:10;;;;;;;;;4.00;4.00;;;;;21.61;47.82;99537.06;111982;1264;19842;-30
2023/12/12 03:56:37;;;;;;;;;2.00;2.00;;;;;21.60;47.85;99538.22;111989;1249;21968;-30
2023/12/12 03:59:05;;;;;;;;;2.00;2.00;;;;;21.59;47.63;99537.64;112013;1251;19592;-30
2023/12/12 04:01:32;;;;;;;;;4.00;2.00;;;;;21.59;47.98;99541.67;112019;1251;20196;-30
2023/12/12 04:04:00;;;;;;;;;2.00;2.00;;;;;21.60;47.90;99543.89;112063;1264;19353;-30
2023/12/12 04:06:27;;;;;;;;;4.00;4.00;;;;;21.59;47.81;99544.17;112006;1257;18299;-30
2023/12/12 04:08:55;;;;;;;;;2.00;2.00;;;;;21.59;47.78;99543.76;112040;1264;20172;-31
2023/12/12 04:11:22;;;;;;;;;2.00;2.00;;;;;21.58;47.75;99545.73;111997;1264;19292;-30
2023/12/12 04:13:49;;;;;;;;;2.00;2.00;;;;;21.58;47.90;99550.20;112060;1264;18661;-29
2023/12/12 04:16:17;;;;;;;;;2.00;2.00;;;;;21.59;47.88;99554.60;111991;1249;20035;-30
2023/12/12 04:18:44;;;;;;;;;4.00;4.00;;;;;21.60;47.67;99558.00;112006;1264;22387;-31
2023/12/12 04:21:11;;;;;;;;;2.00;2.00;;;;;21.61;47.65;99564.70;111984;1257;19535;-30
2023/12/12 04:23:42;;;;;;;;;2.00;2.00;;;;;21.59;47.65;99564.85;111966;1251;20044;-30
2023/12/12 04:26:10;;;;;;;;;4.00;4.00;;;;;21.60;47.68;99563.25;112029;1254;20792;-31
2023/12/12 04:28:38;;;;;;;;;4.00;4.00;;;;;21.58;47.73;99565.83;111992;1264;19436;-31
2023/12/12 04:31:05;;;;;;;;;3.33;3.33;;;;;21.59;47.57;99568.27;112053;1250;20048;-31
2023/12/12 04:33:33;;;;;;;;;2.00;2.00;;;;;21.59;47.53;99571.38;111982;1264;20848;-31
2023/12/12 04:36:01;;;;;;;;;4.33;4.00;;;;;21.58;47.66;99571.02;112026;1250;20673;-31
2023/12/12 04:38:28;;;;;;;;;4.00;4.00;;;;;21.58;47.60;99574.35;111962;1249;20005;-31
2023/12/12 04:40:56;;;;;;;;;4.00;4.00;;;;;21.58;47.59;99575.38;112051;1249;21881;-31
2023/12/12 04:43:23;;;;;;;;;5.00;4.33;;;;;21.58;47.59;99575.26;111986;1257;19520;-31
2023/12/12 04:45:50;;;;;;;;;5.00;5.00;;;;;21.58;47.55;99579.04;112033;1264;18666;-31
2023/12/12 04:48:18;;;;;;;;;5.00;4.00;;;;;21.58;47.44;99582.14;111939;1249;20966;-31
2023/12/12 04:50:45;;;;;;;;;4.50;4.50;;;;;21.58;47.65;99585.26;112045;1264;18116;-30
2023/12/12 04:53:13;;;;;;;;;5.00;5.00;;;;;21.59;47.61;99593.45;111970;1264;18594;-31
2023/12/12 04:55:40;;;;;;;;;4.50;4.50;;;;;21.59;47.63;99599.44;112049;1249;19354;-30
2023/12/12 04:58:07;;;;;;;;;6.00;5.00;;;;;21.59;47.50;99608.29;112027;1257;18508;-31
2023/12/12 05:00:35;;;;;;;;;4.00;4.00;;;;;21.58;47.40;99610.96;112107;1264;19959;-31
2023/12/12 05:03:02;;;;;;;;;5.00;5.00;;;;;21.58;47.54;99616.52;112085;1249;20799;-30
2023/12/12 05:05:30;;;;;;;;;7.00;7.00;;;;;21.59;47.38;99619.35;112045;1250;19596;-31
2023/12/12 05:07:57;;;;;;;;;5.00;5.00;;;;;21.58;47.42;99618.98;111991;1264;18874;-31
2023/12/12 05:10:25;;;;;;;;;5.00;5.00;;;;;21.58;47.52;99624.27;112060;1264;19526;-31
2023/12/12 05:12:52;;;;;;;;;7.00;5.00;;;;;21.58;47.27;99631.52;111986;1264;19453;-31
2023/12/12 05:15:19;;;;;;;;;7.00;5.00;;;;;21.57;47.41;99632.56;112085;1249;18954;-31
2023/12/12 05:17:47;;;;;;;;;7.00;7.00;;;;;21.56;47.33;99635.09;112032;1264;20670;-31
2023/12/12 05:20:14;;;;;;;;;7.00;5.00;;;;;21.56;47.49;99645.50;112061;1264;18526;-31
2023/12/12 05:22:42;;;;;;;;;8.00;7.00;;;;;21.56;47.33;99648.33;112011;1264;18682;-31
2023/12/12 05:25:09;;;;;;;;;8.00;8.00;;;;;21.56;47.43;99650.58;112048;1251;20754;-31
2023/12/12 05:27:37;;;;;;;;;8.00;8.00;;;;;21.56;47.34;99654.34;112038;1251;19645;-30
2023/12/12 05:30:04;;;;;;;;;6.00;5.00;;;;;21.56;47.32;99655.38;112006;1249;18823;-30
2023/12/12 05:32:32;;;;;;;;;7.00;7.00;;;;;21.55;47.30;99657.06;112050;1249;20891;-31
2023/12/12 05:34:59;;;;;;;;;8.00;7.00;;;;;21.54;47.23;99658.77;112085;1250;18536;-30
2023/12/12 05:37:27;;;;;;;;;10.00;9.00;;;;;21.54;47.31;99666.41;112056;1264;20113;-31
2023/12/12 05:39:54;;;;;;;;;12.50;11.00;;;;;21.54;47.31;99674.20;112021;1249;21976;-31
2023/12/12 05:42:21;;;;;;;;;10.00;10.00;;;;;21.54;47.17;99683.79;112089;1249;18821;-31
2023/12/12 05:44:49;;;;;;;;;10.00;10.00;;;;;21.56;47.34;99687.36;111949;1264;18687;-31
2023/12/12 05:47:16;;;;;;;;;9.00;8.00;;;;;21.55;47.29;99689.83;112099;1249;20724;-31
2023/12/12 05:49:44;;;;;;;;;8.00;8.00;;;;;21.54;47.17;99683.05;111913;1265;18553;-31
2023/12/12 05:52:11;;;;;;;;;8.00;8.00;;;;;21.54;47.16;99684.52;112085;1264;18587;-31
2023/12/12 05:54:38;;;;;;;;;8.00;8.00;;;;;21.54;47.26;99684.45;111954;1250;20619;-31
2023/12/12 05:57:06;;;;;;;;;8.00;8.00;;;;;21.55;47.05;99692.77;112088;1264;18156;-31
2023/12/12 05:59:34;;;;;;;;;8.00;7.50;;;;;21.53;47.29;99693.30;111969;1249;20034;-31
2023/12/12 06:02:03;;;;;;;;;10.00;10.00;;;;;21.56;47.23;99701.58;112081;1249;20885;-31
2023/12/12 06:04:31;;;;;;;;;10.00;10.00;;;;;21.55;46.99;99699.96;112105;1264;18199;-31
2023/12/12 06:06:58;;;;;;;;;9.00;9.00;;;;;21.54;47.12;99704.17;111959;1265;19079;-31
2023/12/12 06:09:25;;;;;;;;;8.00;8.00;;;;;21.55;47.22;99713.00;112095;1264;20902;-31
2023/12/12 06:11:53;;;;;;;;;8.00;8.00;;;;;21.55;47.32;99722.37;111999;1249;19587;-31
2023/12/12 06:14:20;;;;;;;;;10.00;8.00;;;;;21.54;47.04;99725.98;112120;1264;19950;-31
2023/12/12 06:16:48;;;;;;;;;10.00;10.00;;;;;21.54;47.01;99728.59;111997;1249;20797;-31
2023/12/12 06:19:15;;;;;;;;;8.00;8.00;;;;;21.55;46.90;99731.20;112071;1248;18655;-31
2023/12/12 06:21:42;;;;;;;;;10.33;10.00;;;;;21.54;47.09;99736.48;112016;1257;19954;-31
2023/12/12 06:24:10;;;;;;;;;8.00;8.00;;;;;21.54;46.95;99742.77;112040;1251;20813;-31
2023/12/12 06:26:38;;;;;;;;;8.00;7.00;;;;;21.53;46.82;99750.52;112097;1249;18511;-31
2023/12/12 06:29:07;;;;;;;;;10.50;9.00;;;;;21.58;46.88;99757.64;112118;1264;18724;-31
2023/12/12 06:31:35;;;;;;;;;10.00;10.00;;;;;21.67;46.72;99758.13;111973;1249;19537;-31
2023/12/12 06:34:02;;;;;;;;;11.00;10.00;;;;;21.68;46.92;99770.92;112037;1263;21141;-31
2023/12/12 06:36:30;;;;;;;;;12.00;10.00;;;;;21.66;47.03;99767.68;112023;1247;20499;-31
2023/12/12 06:38:57;;;;;;;;;8.00;8.00;;;;;21.72;47.18;99769.38;112084;1263;20640;-31
2023/12/12 06:41:25;;;;;;;;;13.00;11.00;;;;;21.72;47.45;99769.71;112009;1248;19946;-31
2023/12/12 06:43:52;;;;;;;;;13.00;11.00;;;;;21.71;47.46;99775.98;112080;1263;19997;-31
2023/12/12 06:46:20;;;;;;;;;10.00;10.00;;;;;21.72;47.53;99784.20;111978;1263;20885;-31
2023/12/12 06:48:47;;;;;;;;;8.00;8.00;;;;;21.73;47.59;99787.46;112090;1248;20351;-31
2023/12/12 06:51:15;;;;;;;;;10.50;10.00;;;;;21.70;47.82;99792.14;111947;1263;20175;-31
2023/12/12 06:53:42;;;;;;;;;10.00;8.00;;;;;21.69;47.79;99793.35;112089;1263;21040;-31
2023/12/12 06:56:10;;;;;;;;;10.00;10.00;;;;;21.70;48.33;99797.82;112029;1247;18764;-31
2023/12/12 06:58:38;;;;;;;;;14.00;11.00;;;;;21.65;48.52;99798.55;112068;1263;19361;-31
2023/12/12 07:01:05;;;;;;;;;12.00;11.00;;;;;21.58;48.28;99804.22;111902;1263;21745;-31
2023/12/12 07:03:32;;;;;;;;;11.00;10.00;;;;;21.61;47.63;99806.80;112053;1263;19890;-31
2023/12/12 07:06:02;;;;;;;;;12.00;10.50;;;;;21.55;47.89;99805.14;111939;1248;20065;-31
2023/12/12 07:08:29;;;;;;;;;10.67;10.67;;;;;21.55;47.56;99809.95;111977;1263;19580;-30
2023/12/12 07:10:57;;;;;;;;;13.00;13.00;;;;;21.59;47.12;99809.44;112119;1263;18528;-31
2023/12/12 07:13:24;;;;;;;;;10.00;10.00;;;;;21.58;47.34;99815.29;112024;1263;19031;-31
2023/12/12 07:15:52;;;;;;;;;11.67;11.00;;;;;21.57;47.63;99818.24;112096;1263;21892;-31
2023/12/12 07:18:20;;;;;;;;;7.00;6.00;;;;;21.58;47.32;99821.44;111981;1263;19855;-31
2023/12/12 07:20:48;;;;;;;;;10.00;10.00;;;;;21.58;47.74;99819.16;112070;1247;20066;-31
2023/12/12 07:23:15;;;;;;;;;14.00;11.00;;;;;21.59;47.77;99819.23;112005;1247;20817;-31
2023/12/12 07:25:42;;;;;;;;;9.00;9.00;;;;;21.58;47.71;99826.02;112070;1247;18725;-31
2023/12/12 07:28:10;;;;;;;;;10.00;10.00;;;;;21.56;47.59;99827.70;111997;1263;19943;-31
2023/12/12 07:30:37;;;;;;;;;10.00;7.00;;;;;21.56;47.72;99834.30;112070;1263;19320;-31
2023/12/12 07:33:05;;;;;;;;;10.00;8.00;;;;;21.56;47.39;99838.15;112011;1263;18865;-31
2023/12/12 07:35:32;;;;;;;;;10.00;8.00;;;;;21.56;47.48;99842.25;112117;1247;18910;-31
2023/12/12 07:38:01;;;;;;;;;8.00;7.50;;;;;21.56;47.54;99846.28;112017;1248;21921;-31
2023/12/12 07:40:30;;;;;;;;;10.00;10.00;;;;;21.55;47.60;99847.61;112010;1256;19895;-31
2023/12/12 07:42:57;;;;;;;;;7.00;7.00;;;;;21.59;47.50;99845.63;112038;1257;18802;-31
2023/12/12 07:45:25;;;;;;;;;10.00;10.00;;;;;21.57;47.42;99843.16;112003;1263;19399;-31
2023/12/12 07:47:52;;;;;;;;;11.00;10.00;;;;;21.60;47.61;99844.84;112103;1257;18183;-30
2023/12/12 07:50:20;;;;;;;;;7.67;7.33;;;;;21.59;47.61;99848.95;112030;1248;20110;-31
2023/12/12 07:52:48;;;;;;;;;7.00;7.00;;;;;21.56;47.66;99845.84;112069;1263;19292;-31
2023/12/12 07:55:15;;;;;;;;;7.00;7.00;;;;;21.61;47.75;99852.35;112071;1247;19898;-31
2023/12/12 07:57:43;;;;;;;;;9.00;9.00;;;;;21.65;47.42;99857.64;112043;1263;18554;-31
2023/12/12 08:00:11;;;;;;;;;9.33;8.00;;;;;21.69;47.61;99860.04;112034;1263;19365;-31
2023/12/12 08:02:38;;;;;;;;;9.00;9.00;;;;;21.64;47.94;99857.47;112030;1263;18116;-31
2023/12/12 08:05:06;;;;;;;;;10.00;8.00;;;;;21.65;48.00;99858.89;112015;1263;20036;-31
2023/12/12 08:07:33;;;;;;;;;10.00;8.00;;;;;21.68;47.84;99855.34;112012;1247;20757;-31
2023/12/12 08:10:01;;;;;;;;;9.00;8.00;;;;;21.70;48.14;99861.59;112014;1248;21251;-31
2023/12/12 08:12:28;;;;;;;;;8.00;8.00;;;;;21.63;48.00;99864.58;111993;1248;20249;-31
2023/12/12 08:14:56;;;;;;;;;7.00;7.00;;;;;21.63;48.37;99874.02;112017;1248;20738;-31
2023/12/12 08:17:23;;;;;;;;;10.00;7.00;;;;;21.65;48.52;99875.41;112018;1263;18120;-31
2023/12/12 08:19:51;;;;;;;;;8.00;8.00;;;;;21.67;48.92;99876.30;112013;1256;18661;-32
2023/12/12 08:22:18;;;;;;;;;10.00;8.00;;;;;21.67;48.62;99871.39;111988;1256;19195;-31
2023/12/12 08:24:50;;;;;;;;;11.00;10.00;;;;;21.69;48.92;99872.89;112021;1263;18831;-31
2023/12/12 08:27:18;;;;;;;;;10.00;10.00;;;;;21.73;48.91;99877.03;112034;1263;20228;-31
2023/12/12 08:29:46;;;;;;;;;8.00;8.00;;;;;21.68;48.99;99880.20;112005;1264;22168;-31
2023/12/12 08:32:13;;;;;;;;;7.67;7.00;;;;;21.74;49.07;99884.32;112042;1249;18867;-31
2023/12/12 08:34:41;;;;;;;;;8.00;8.00;;;;;21.75;50.05;99882.61;112023;1263;18952;-31
2023/12/12 08:37:08;;;;;;;;;8.00;7.00;;;;;21.78;50.07;99880.70;111987;1264;19306;-30
2023/12/12 08:39:36;;;;;;;;;8.00;8.00;;;;;21.78;50.51;99884.96;112037;1263;19579;-31
2023/12/12 08:42:03;;;;;;;;;7.00;7.00;;;;;21.81;50.25;99888.23;112010;1263;20672;-31
2023/12/12 08:44:31;;;;;;;;;5.00;5.00;;;;;21.82;50.21;99886.86;112017;1263;21188;-30
2023/12/12 08:46:58;;;;;;;;;7.50;7.50;;;;;21.79;50.26;99892.69;112057;1263;18122;-31
2023/12/12 08:49:26;;;;;;;;;7.00;7.00;;;;;21.78;50.07;99892.59;112049;1263;18865;-31
2023/12/12 08:51:54;;;;;;;;;8.00;8.00;;;;;21.77;50.20;99894.34;111992;1248;20732;-31
2023/12/12 08:54:21;;;;;;;;;8.00;8.00;;;;;21.71;49.99;99897.73;112045;1263;19773;-31
2023/12/12 08:56:52;;;;;;;;;7.00;7.00;;;;;21.67;50.24;99904.27;111958;1263;20031;-31
2023/12/12 08:59:21;;;;;;;;;5.00;5.00;;;;;21.65;50.40;99904.02;112084;1263;22218;-31
2023/12/12 09:01:49;;;;;;;;;5.00;5.00;;;;;21.65;50.60;99907.29;112001;1248;19579;-31
2023/12/12 09:04:16;;;;;;;;;8.00;8.00;;;;;21.65;50.20;99911.33;112063;1263;18598;-31
2023/12/12 09:06:44;;;;;;;;;7.00;7.00;;;;;21.63;50.15;99914.63;112003;1255;19354;-31
2023/12/12 09:09:12;;;;;;;;;7.00;7.00;;;;;21.64;50.10;99913.58;112011;1255;18464;-31
2023/12/12 09:11:39;;;;;;;;;7.00;5.00;;;;;21.62;49.99;99916.17;112127;1247;20038;-31
2023/12/12 09:14:07;;;;;;;;;5.00;5.00;;;;;21.70;49.84;99914.67;112001;1263;19441;-31
2023/12/12 09:16:34;;;;;;;;;8.00;7.00;;;;;21.70;50.01;99913.33;112070;1247;18719;-31
2023/12/12 09:19:02;;;;;;;;;9.00;9.00;;;;;21.66;50.11;99918.73;112015;1247;20427;-31
2023/12/12 09:21:29;;;;;;;;;8.00;8.00;;;;;21.61;50.10;99923.15;112059;1263;20702;-31
2023/12/12 09:23:57;;;;;;;;;8.00;7.00;;;;;21.59;50.31;99920.94;112018;1263;19487;-31
2023/12/12 09:26:24;;;;;;;;;5.00;5.00;;;;;21.61;49.92;99923.82;112043;1247;20058;-31
2023/12/12 09:28:51;;;;;;;;;7.00;7.00;;;;;21.69;49.58;99920.96;112043;1263;19366;-31
2023/12/12 09:31:19;;;;;;;;;5.00;5.00;;;;;21.70;49.93;99922.38;111893;1248;19564;-30
2023/12/12 09:33:46;;;;;;;;;5.00;5.00;;;;;21.71;49.67;99923.38;112083;1247;20074;-30
2023/12/12 09:36:14;;;;;;;;;5.00;5.00;;;;;21.74;49.80;99917.67;112087;1262;20500;-30
2023/12/12 09:38:41;;;;;;;;;5.00;5.00;;;;;21.73;50.06;99915.90;112104;1254;19525;-30
2023/12/12 09:41:09;;;;;;;;;7.00;5.67;;;;;21.77;50.26;99922.59;112068;1247;21484;-30
2023/12/12 09:43:36;;;;;;;;;8.00;7.00;;;;;21.70;50.58;99923.78;112075;1247;22066;-30
2023/12/12 09:46:04;;;;;;;;;8.00;7.50;;;;;21.72;50.46;99921.58;112056;1262;19496;-30
2023/12/12 09:48:31;;;;;;;;;4.50;4.50;;;;;21.71;50.32;99921.21;112116;1254;21230;-30
2023/12/12 09:50:59;;;;;;;;;7.00;5.00;;;;;21.73;50.37;99921.30;112088;1247;21365;-30
2023/12/12 09:53:26;;;;;;;;;5.00;5.00;;;;;21.72;50.49;99923.06;112222;1262;18152;-30
2023/12/12 09:55:54;;;;;;;;;4.00;4.00;;;;;21.79;50.18;99914.27;112170;1262;19739;-30
2023/12/12 09:58:21;;;;;;;;;8.00;7.00;;;;;21.86;50.22;99917.97;112246;1262;19269;-35
2023/12/12 10:00:48;;;;;;;;;8.00;7.00;;;;;21.77;50.33;99919.37;112104;1262;20824;-30
2023/12/12 10:03:16;;;;;;;;;8.00;7.67;;;;;21.73;50.32;99917.90;112238;1262;19828;-31
2023/12/12 10:05:43;;;;;;;;;7.50;7.00;;;;;21.74;50.05;99916.05;112121;1248;20752;-31
2023/12/12 10:08:11;;;;;;;;;7.00;7.00;;;;;21.79;50.52;99916.19;112268;1262;18128;-31
2023/12/12 10:10:38;;;;;;;;;5.00;5.00;;;;;21.75;50.69;99920.16;112144;1262;18738;-31
2023/12/12 10:13:05;;;;;;;;;5.00;5.00;;;;;21.73;50.66;99926.58;112305;1247;20716;-31
2023/12/12 10:15:33;;;;;;;;;8.00;6.33;;;;;21.74;50.59;99927.11;112170;1247;19559;-30
2023/12/12 10:18:00;;;;;;;;;7.00;7.00;;;;;21.76;50.22;99929.04;112311;1254;18576;-31
2023/12/12 10:20:28;;;;;;;;;4.00;4.00;;;;;21.83;49.92;99930.94;112206;1262;22132;-30
2023/12/12 10:22:55;;;;;;;;;6.00;6.00;;;;;21.85;50.07;99932.98;112346;1247;19880;-31
2023/12/12 10:25:23;;;;;;;;;5.00;5.00;;;;;21.82;50.25;99935.26;112223;1247;20060;-30
2023/12/12 10:27:52;;;;;;;;;5.00;5.00;;;;;21.78;50.56;99932.82;112313;1262;19363;-31
2023/12/12 10:30:20;;;;;;;;;5.00;5.00;;;;;21.77;50.17;99928.86;112262;1262;19623;-30
2023/12/12 10:32:47;;;;;;;;;8.00;6.00;;;;;21.76;50.24;99929.73;112111;1262;19969;-30
2023/12/12 10:35:15;;;;;;;;;5.00;5.00;;;;;21.77;50.13;99928.05;112127;1263;19278;-30
2023/12/12 10:37:42;;;;;;;;;7.00;5.00;;;;;21.79;50.17;99926.58;112102;1248;19648;-30
2023/12/12 10:40:10;;;;;;;;;5.00;5.00;;;;;21.92;49.86;99930.63;112135;1263;18565;-29
2023/12/12 10:42:37;;;;;;;;;4.00;4.00;;;;;21.90;49.93;99926.14;112110;1263;20927;-29
2023/12/12 10:45:05;;;;;;;;;4.00;4.00;;;;;21.86;50.15;99927.79;112170;1248;20897;-29
2023/12/12 10:47:32;;;;;;;;;5.00;5.00;;;;;21.84;50.16;99929.77;112125;1248;20016;-30
2023/12/12 10:50:01;;;;;;;;;4.00;4.00;;;;;21.85;50.32;99928.84;112164;1263;19379;-30
2023/12/12 10:52:29;;;;;;;;;5.00;5.00;;;;;21.83;50.36;99928.54;111991;1263;18490;-30
2023/12/12 10:54:57;;;;;;;;;8.00;7.00;;;;;21.90;50.09;99925.60;112189;1263;18636;-30
2023/12/12 10:57:24;;;;;;;;;5.00;5.00;;;;;21.85;50.11;99921.48;111963;1247;21248;-30
2023/12/12 10:59:52;;;;;;;;;7.00;5.00;;;;;21.86;50.11;99924.63;112130;1263;19678;-30
2023/12/12 11:02:19;;;;;;;;;7.00;7.00;;;;;21.83;50.15;99924.52;111995;1247;18818;-30
2023/12/12 11:04:47;;;;;;;;;6.00;5.00;;;;;21.83;50.10;99924.88;112133;1256;19747;-29
2023/12/12 11:07:14;;;;;;;;;5.00;5.00;;;;;21.82;50.13;99927.63;112051;1263;18144;-30
2023/12/12 11:09:43;;;;;;;;;5.00;5.00;;;;;21.77;49.14;99924.17;112173;1263;19880;-30
2023/12/12 11:12:10;;;;;;;;;5.00;5.00;;;;;21.72;49.51;99927.20;112154;1248;20779;-30
2023/12/12 11:14:37;;;;;;;;;5.00;5.00;;;;;21.70;50.12;99926.95;112065;1263;18358;-30
2023/12/12 11:17:05;;;;;;;;;8.00;5.00;;;;;21.70;50.18;99932.36;112091;1263;20642;-30
2023/12/12 11:19:32;;;;;;;;;7.00;6.33;;;;;21.76;49.88;99928.55;112058;1248;20680;-30
2023/12/12 11:22:00;;;;;;;;;5.67;5.00;;;;;21.71;49.86;99926.52;111986;1248;19577;-30
2023/12/12 11:24:27;;;;;;;;;4.50;4.50;;;;;21.65;50.04;99925.94;112081;1248;20220;-30